Авиационная погода в Батуми

Регион: 
Погода METAR: 
UGSB 221800Z 11010KT 9999 SCT130 08/M01 Q1011 NOSIG
Время наблюдения
2022-01-22T18:00:00Z
Температура C
8.0
Точка росы
-1.0
Направление ветра
110
Скорость ветра (узлы)
10
Метео видимость
6.21
Облачность
SCT
Нижняя граница облачности (футы)
13000
Явления погоды
Условия полета
VFR
SCT – разбросанная отдельная облачность;